createdAt,value
2018-08-22T00:01:36.084Z,2.70
2018-08-22T00:07:41.143Z,3.20
2018-08-22T00:13:45.856Z,3.57
2018-08-22T00:19:50.596Z,2.43
2018-08-22T00:25:55.340Z,2.57
2018-08-22T00:31:59.978Z,2.33
2018-08-22T00:38:04.862Z,2.17
2018-08-22T00:44:10.134Z,2.77
2018-08-22T00:50:14.900Z,2.43
2018-08-22T00:56:19.965Z,1.90
2018-08-22T01:02:24.659Z,1.83
2018-08-22T01:08:29.843Z,2.30
2018-08-22T01:14:34.537Z,1.97
2018-08-22T01:20:40.041Z,2.13
2018-08-22T01:26:45.030Z,1.87
2018-08-22T01:32:49.686Z,1.53
2018-08-22T01:38:54.407Z,1.87
2018-08-22T01:44:59.135Z,1.80
2018-08-22T01:51:03.860Z,1.87
2018-08-22T01:57:09.120Z,1.80
2018-08-22T02:03:13.852Z,1.70
2018-08-22T02:09:18.494Z,1.73
2018-08-22T02:15:23.140Z,1.93
2018-08-22T02:21:28.059Z,2.67
2018-08-22T02:27:32.762Z,2.47
2018-08-22T02:33:37.465Z,2.73
2018-08-22T02:39:42.321Z,2.30
2018-08-22T02:45:47.147Z,1.90
2018-08-22T02:51:51.751Z,2.63
2018-08-22T02:57:56.454Z,1.80
2018-08-22T03:04:01.464Z,2.30
2018-08-22T03:10:06.459Z,2.13
2018-08-22T03:16:11.607Z,2.27
2018-08-22T03:22:17.061Z,1.90
2018-08-22T03:28:21.762Z,1.77
2018-08-22T03:34:26.545Z,1.80
2018-08-22T03:40:31.440Z,1.70
2018-08-22T03:46:36.231Z,2.13
2018-08-22T03:52:41.233Z,1.83
2018-08-22T03:58:45.980Z,2.00
2018-08-22T04:04:50.935Z,1.80
2018-08-22T04:10:55.642Z,2.03
2018-08-22T04:17:00.326Z,1.77
2018-08-22T04:23:05.210Z,1.70
2018-08-22T04:29:10.372Z,2.10
2018-08-22T04:35:15.390Z,1.60
2018-08-22T04:41:20.075Z,1.87
2018-08-22T04:47:24.924Z,2.13
2018-08-22T04:53:29.757Z,1.70
2018-08-22T04:59:34.624Z,2.07
2018-08-22T05:05:39.499Z,1.90
2018-08-22T05:11:44.231Z,2.10
2018-08-22T05:17:48.862Z,1.73
2018-08-22T05:23:53.549Z,2.47
2018-08-22T05:29:58.265Z,1.90
2018-08-22T05:36:02.900Z,1.70
2018-08-22T05:42:08.178Z,1.70
2018-08-22T05:48:13.705Z,1.70
2018-08-22T05:54:19.020Z,1.37
2018-08-22T06:00:23.858Z,1.87
2018-08-22T06:06:28.653Z,1.73
2018-08-22T06:12:33.673Z,1.90
2018-08-22T06:18:39.150Z,2.60
2018-08-22T06:24:43.923Z,1.90
2018-08-22T06:30:48.760Z,1.53
2018-08-22T06:36:53.434Z,1.83
2018-08-22T06:42:58.378Z,2.07
2018-08-22T06:49:03.112Z,1.90
2018-08-22T06:55:08.507Z,2.40
2018-08-22T07:01:14.169Z,1.60
2018-08-22T07:07:19.605Z,1.87
2018-08-22T07:13:24.497Z,1.50
2018-08-22T07:19:29.410Z,1.70
2018-08-22T07:25:34.331Z,2.00
2018-08-22T07:31:39.779Z,1.60
2018-08-22T07:37:44.565Z,1.57
2018-08-22T07:43:49.412Z,1.40
2018-08-22T07:49:54.164Z,1.67
2018-08-22T07:55:58.948Z,1.70
2018-08-22T08:02:03.749Z,1.60
2018-08-22T08:08:08.657Z,1.53
2018-08-22T08:14:13.836Z,1.50
2018-08-22T08:20:18.980Z,1.63
2018-08-22T08:26:23.722Z,2.17
2018-08-22T08:32:28.505Z,2.13
2018-08-22T08:38:33.296Z,1.80
2018-08-22T08:44:38.516Z,1.60
2018-08-22T08:50:43.787Z,1.50
2018-08-22T08:56:48.612Z,1.80
2018-08-22T09:02:53.285Z,1.80
2018-08-22T09:08:57.964Z,1.83
2018-08-22T09:15:02.822Z,1.40
2018-08-22T09:21:07.955Z,1.83
2018-08-22T09:27:13.075Z,2.33
2018-08-22T09:33:18.757Z,1.97
2018-08-22T09:39:23.796Z,1.80
2018-08-22T09:45:28.735Z,1.77
2018-08-22T09:51:33.730Z,2.37
2018-08-22T09:57:38.735Z,1.77
2018-08-22T10:04:00.120Z,2.13
2018-08-22T10:10:05.183Z,1.93
2018-08-22T10:16:11.810Z,2.50
2018-08-22T10:22:16.621Z,2.20
2018-08-22T10:28:21.364Z,1.80
2018-08-22T10:34:26.048Z,1.70
2018-08-22T10:40:31.934Z,2.10
2018-08-22T10:46:37.109Z,2.07
2018-08-22T10:52:42.960Z,1.80
2018-08-22T10:58:47.807Z,1.80
2018-08-22T11:04:52.518Z,2.00
2018-08-22T11:10:57.567Z,2.40
2018-08-22T11:17:02.314Z,2.30
2018-08-22T11:23:24.361Z,2.30
2018-08-22T11:29:46.582Z,2.57
2018-08-22T11:35:49.436Z,3.00
2018-08-22T11:41:54.209Z,2.33
2018-08-22T11:47:59.126Z,2.87
2018-08-22T11:54:04.075Z,2.93
2018-08-22T12:00:10.059Z,2.47
2018-08-22T12:06:14.787Z,2.80
2018-08-22T12:12:20.074Z,3.80
2018-08-22T12:18:24.768Z,2.80
2018-08-22T12:24:30.096Z,3.30
2018-08-22T12:30:34.858Z,3.03
2018-08-22T12:36:39.737Z,3.40
2018-08-22T12:42:44.428Z,3.50
2018-08-22T12:48:49.513Z,3.10
2018-08-22T12:54:54.533Z,3.33
2018-08-22T13:00:59.383Z,3.60
2018-08-22T13:07:04.255Z,3.40
2018-08-22T13:13:09.575Z,3.43
2018-08-22T13:19:14.350Z,3.30
2018-08-22T13:25:19.243Z,3.67
2018-08-22T13:31:24.353Z,3.60
2018-08-22T13:37:29.084Z,3.40
2018-08-22T13:43:33.921Z,3.47
2018-08-22T13:49:39.318Z,3.80
2018-08-22T13:55:44.656Z,3.63
2018-08-22T14:01:49.766Z,3.43
2018-08-22T14:07:54.674Z,4.20
2018-08-22T14:13:59.833Z,4.00
2018-08-22T14:20:04.670Z,3.70
2018-08-22T14:26:09.658Z,3.60
2018-08-22T14:32:14.660Z,3.83
2018-08-22T14:38:19.670Z,3.47
2018-08-22T14:44:24.700Z,3.90
2018-08-22T14:50:29.763Z,3.80
2018-08-22T14:56:34.808Z,3.70
2018-08-22T15:02:39.749Z,3.67
2018-08-22T15:08:44.621Z,3.07
2018-08-22T15:14:49.612Z,3.97
2018-08-22T15:20:54.582Z,3.23
2018-08-22T15:26:59.583Z,3.60
2018-08-22T15:33:04.715Z,3.90
2018-08-22T15:39:11.200Z,4.27
2018-08-22T15:45:16.199Z,5.17
2018-08-22T15:51:21.233Z,4.23
2018-08-22T15:57:26.312Z,4.63
2018-08-22T16:03:31.266Z,4.57
2018-08-22T16:09:36.001Z,3.93
2018-08-22T16:15:40.714Z,4.20
2018-08-22T16:21:45.553Z,4.13
2018-08-22T16:27:51.363Z,3.80
2018-08-22T16:33:56.047Z,3.83
2018-08-22T16:40:01.005Z,3.80
2018-08-22T16:46:08.883Z,3.77
2018-08-22T16:52:13.520Z,4.07
2018-08-22T16:58:18.579Z,4.60
2018-08-22T17:04:23.534Z,3.73
2018-08-22T17:10:48.227Z,3.50
2018-08-22T17:16:52.867Z,3.77
2018-08-22T17:22:57.497Z,3.43
2018-08-22T17:29:02.346Z,4.27
2018-08-22T17:35:07.151Z,4.23
2018-08-22T17:41:11.826Z,3.63
2018-08-22T17:47:16.432Z,4.10
2018-08-22T17:53:21.054Z,4.27
2018-08-22T17:59:25.786Z,4.50
2018-08-22T18:05:32.975Z,4.73
2018-08-22T18:11:37.953Z,4.07
2018-08-22T18:17:42.957Z,4.40
2018-08-22T18:23:55.007Z,4.03
2018-08-22T18:29:59.671Z,4.30
2018-08-22T18:36:04.341Z,4.53
2018-08-22T18:42:09.011Z,4.00
2018-08-22T18:48:13.643Z,4.10
2018-08-22T18:54:18.520Z,4.40
2018-08-22T19:00:23.478Z,4.00
2018-08-22T19:06:28.389Z,4.73
2018-08-22T19:12:33.307Z,3.70
2018-08-22T19:18:38.172Z,4.10
2018-08-22T19:24:57.588Z,4.50
2018-08-22T19:31:02.053Z,4.23
2018-08-22T19:37:06.670Z,3.60
2018-08-22T19:43:11.270Z,4.00
2018-08-22T19:49:15.869Z,4.40
2018-08-22T19:55:20.424Z,4.43
2018-08-22T20:01:25.048Z,4.20
2018-08-22T20:07:29.680Z,5.40
2018-08-22T20:14:01.234Z,4.00
2018-08-22T20:20:06.695Z,4.50
2018-08-22T20:26:11.301Z,4.87
2018-08-22T20:32:21.003Z,4.57
2018-08-22T20:38:25.570Z,4.70
2018-08-22T20:44:30.239Z,4.40
2018-08-22T20:50:35.483Z,4.30
2018-08-22T20:56:48.674Z,4.40
2018-08-22T21:02:54.663Z,4.30
2018-08-22T21:08:59.209Z,4.30
2018-08-22T21:15:03.861Z,3.63
2018-08-22T21:21:12.525Z,3.57
2018-08-22T21:27:17.076Z,3.70
2018-08-22T21:33:21.682Z,4.30
2018-08-22T21:39:27.398Z,3.90
2018-08-22T21:45:32.016Z,3.67
2018-08-22T21:51:38.648Z,3.70
2018-08-22T21:57:43.225Z,3.57
2018-08-22T22:03:47.911Z,3.90
2018-08-22T22:09:57.262Z,4.40
2018-08-22T22:16:04.109Z,3.97
2018-08-22T22:22:08.719Z,4.23
2018-08-22T22:28:13.361Z,3.80
2018-08-22T22:34:17.952Z,3.70
2018-08-22T22:40:26.512Z,4.33
2018-08-22T22:46:31.141Z,3.67
2018-08-22T22:52:45.512Z,4.20
2018-08-22T22:58:50.107Z,3.53
2018-08-22T23:04:55.750Z,4.20
2018-08-22T23:11:00.320Z,3.87
2018-08-22T23:17:04.953Z,3.80
2018-08-22T23:23:35.694Z,3.93
2018-08-22T23:29:40.311Z,3.50
2018-08-22T23:35:44.875Z,3.73
2018-08-22T23:41:49.460Z,4.17
2018-08-22T23:47:54.115Z,4.07
2018-08-22T23:54:00.535Z,4.00
